Valle de Oro, Texas
Current Conditions -  °F | °C
As of 9:53 AM on Thursday 27 Nov 2014 (Local Time) from KAMA Reporting Station
Clear Clear  
Wind Chill: 29°   Ceiling: Unl
Heat Index: 39°   Visibility: 10mi
Dew Point: 23°   Wind: 21mph
Humidity: 53%   Direction: 200°SSW
Pressure: 30.44"   Gusts: 28mph
Location:  35.5297°N, 102.256°W
Report Text: KAMA 271553Z 20018G24KT 10SM CLR 04/M05 A3044 RMK AO2 SLP312 T00391050
Loading
Personal Weather Stations






























Interactive Weather Map New forecast layout! Learn more

10-Day Weather Forecast

Advertisements
Track Severe Weather on mobile